Time;durP1;ratioP1;P1;durP2;ratioP2;P2;SDS_P1;SDS_P2;PMS_P1;PMS_P2;Temp;Humidity;BMP_temperature;BMP_pressure;BME280_temperature;BME280_humidity;BME280_pressure;Samples;Min_cycle;Max_cycle;Signal;HPM_P1;HPM_P2
2023/05/31 00:00:45;;;;;;;2.70;1.25;;;;;;;14.55;100.00;93144.53;5070205;28;20056;-73
2023/05/31 00:03:13;;;;;;;2.08;1.23;;;;;;;14.80;100.00;93181.38;5070247;28;20893;-73
2023/05/31 00:05:40;;;;;;;7.68;1.40;;;;;;;14.81;100.00;93181.13;5070745;28;20041;-73
2023/05/31 00:08:06;;;;;;;2.58;1.33;;;;;;;14.83;100.00;93179.09;5070162;28;20056;-73
2023/05/31 00:10:35;;;;;;;2.60;1.27;;;;;;;14.83;100.00;93181.69;5069938;28;20048;-74
2023/05/31 00:13:01;;;;;;;1.95;1.23;;;;;;;14.80;100.00;93177.00;5070151;28;20044;-74
2023/05/31 00:15:28;;;;;;;2.45;1.45;;;;;;;14.81;100.00;93182.94;5070562;28;20053;-74
2023/05/31 00:17:55;;;;;;;1.98;1.20;;;;;;;14.82;100.00;93181.94;5069780;28;20162;-73
2023/05/31 00:20:24;;;;;;;2.00;1.48;;;;;;;14.83;100.00;93181.69;5071842;28;20048;-73
2023/05/31 00:22:50;;;;;;;1.73;1.08;;;;;;;14.84;100.00;93182.47;5090222;28;20385;-73
2023/05/31 00:25:17;;;;;;;2.85;1.10;;;;;;;14.82;100.00;93182.69;5087610;28;20044;-73
2023/05/31 00:27:45;;;;;;;3.15;1.33;;;;;;;14.79;100.00;93178.00;5069299;28;20041;-74
2023/05/31 00:30:14;;;;;;;2.17;1.15;;;;;;;14.79;100.00;93183.19;5073219;28;20036;-74
2023/05/31 00:32:42;;;;;;;4.15;1.08;;;;;;;14.78;100.00;93186.00;5089662;28;20063;-74
2023/05/31 00:35:11;;;;;;;2.47;1.17;;;;;;;14.52;100.00;93154.56;5069907;28;20083;-74
2023/05/31 00:37:38;;;;;;;1.40;0.75;;;;;;;14.73;100.00;93188.47;5070039;28;20061;-74
2023/05/31 00:40:06;;;;;;;2.50;1.35;;;;;;;14.60;100.00;93176.66;5069382;28;20045;-74
2023/05/31 00:42:33;;;;;;;2.53;1.08;;;;;;;14.65;100.00;93194.81;5069353;28;20420;-74
2023/05/31 00:45:02;;;;;;;2.25;1.33;;;;;;;14.60;100.00;93197.31;5069514;28;20048;-74
2023/05/31 00:47:29;;;;;;;2.10;1.42;;;;;;;14.61;100.00;93191.13;5082949;28;20048;-74
2023/05/31 00:49:57;;;;;;;2.20;1.20;;;;;;;14.55;100.00;93178.13;5069407;28;20053;-74
2023/05/31 00:52:24;;;;;;;2.05;1.25;;;;;;;14.51;100.00;93178.84;5069470;28;20059;-74
2023/05/31 00:54:51;;;;;;;2.33;1.25;;;;;;;14.62;100.00;93192.72;5069293;28;20052;-74
2023/05/31 00:57:18;;;;;;;2.75;1.83;;;;;;;14.57;100.00;93183.88;5068325;28;20098;-73
2023/05/31 00:59:45;;;;;;;2.55;1.50;;;;;;;14.60;100.00;93195.53;5069362;28;20048;-73
2023/05/31 01:02:17;;;;;;;3.00;1.60;;;;;;;14.62;100.00;93185.75;5069101;28;20449;-73
2023/05/31 01:04:44;;;;;;;4.72;2.55;;;;;;;14.62;100.00;93184.97;5069337;28;20479;-73
2023/05/31 01:07:10;;;;;;;3.17;2.00;;;;;;;14.65;100.00;93192.25;5068855;28;20496;-73
2023/05/31 01:09:42;;;;;;;3.50;1.80;;;;;;;14.65;100.00;93185.28;5068518;28;20040;-74
2023/05/31 01:12:17;;;;;;;2.38;1.55;;;;;;;14.69;100.00;93185.59;5068865;28;20492;-74
2023/05/31 01:15:07;;;;;;;2.63;1.63;;;;;;;14.68;100.00;93187.38;5068889;28;20051;-74
2023/05/31 01:17:44;;;;;;;4.00;2.22;;;;;;;14.70;100.00;93190.53;5068604;28;20048;-74
2023/05/31 01:20:14;;;;;;;2.92;1.70;;;;;;;14.55;100.00;93164.44;5068970;28;20148;-74
2023/05/31 01:23:03;;;;;;;2.60;1.40;;;;;;;14.70;100.00;93193.13;5068824;28;20105;-74
2023/05/31 01:25:54;;;;;;;3.33;2.00;;;;;;;14.70;100.00;93184.56;5068582;28;20048;-74
2023/05/31 01:28:25;;;;;;;2.53;1.60;;;;;;;14.72;100.00;93182.50;5065431;28;20080;-74
2023/05/31 01:30:53;;;;;;;2.08;1.27;;;;;;;14.67;100.00;93188.41;5068289;28;20493;-74
2023/05/31 01:33:21;;;;;;;2.15;1.40;;;;;;;14.70;100.00;93187.94;5068837;28;20053;-74
2023/05/31 01:35:48;;;;;;;2.10;1.50;;;;;;;14.70;100.00;93194.91;5068567;28;20166;-74
2023/05/31 01:38:15;;;;;;;2.13;1.38;;;;;;;14.68;100.00;93195.13;5067709;28;20044;-74
2023/05/31 01:40:41;;;;;;;2.22;1.17;;;;;;;14.66;100.00;93191.22;5068425;28;20500;-74
2023/05/31 01:43:10;;;;;;;2.10;1.05;;;;;;;14.65;100.00;93185.28;5067977;28;20048;-74
2023/05/31 01:45:40;;;;;;;1.77;1.08;;;;;;;14.61;100.00;93196.31;5070102;28;20429;-74
2023/05/31 01:48:09;;;;;;;2.50;1.40;;;;;;;14.63;100.00;93179.53;5076678;28;20086;-74
2023/05/31 01:50:37;;;;;;;2.03;1.10;;;;;;;14.62;100.00;93177.97;5067719;28;20043;-74
2023/05/31 01:53:04;;;;;;;1.88;1.13;;;;;;;14.62;100.00;93177.97;5068109;28;20040;-74
2023/05/31 01:55:31;;;;;;;3.08;1.80;;;;;;;14.62;100.00;93175.41;5068023;28;20044;-74
2023/05/31 01:57:58;;;;;;;2.40;1.50;;;;;;;14.62;100.00;93177.97;5081920;28;20056;-74
2023/05/31 02:00:25;;;;;;;2.33;1.27;;;;;;;14.61;100.00;93176.41;5088022;28;20048;-74
2023/05/31 02:02:55;;;;;;;2.25;1.20;;;;;;;14.60;100.00;93190.38;5088172;28;20866;-74
2023/05/31 02:05:22;;;;;;;1.95;1.13;;;;;;;14.63;100.00;93192.47;5088184;28;20447;-74
2023/05/31 02:07:48;;;;;;;2.85;1.80;;;;;;;14.61;100.00;93181.59;5087083;28;20446;-74
2023/05/31 02:10:15;;;;;;;2.58;1.42;;;;;;;14.57;100.00;93186.44;5088076;28;20458;-74
2023/05/31 02:12:42;;;;;;;2.95;1.60;;;;;;;14.57;100.00;93198.56;5088107;28;20052;-74
2023/05/31 02:15:10;;;;;;;2.22;1.27;;;;;;;14.53;100.00;93190.50;5088080;28;20055;-74
2023/05/31 02:17:40;;;;;;;2.33;1.30;;;;;;;14.53;100.00;93190.50;5087828;28;20044;-74
2023/05/31 02:20:10;;;;;;;2.55;1.50;;;;;;;14.56;100.00;93184.09;5088386;28;20469;-74
2023/05/31 02:22:36;;;;;;;1.92;1.10;;;;;;;14.57;100.00;93189.03;5087289;28;20040;-74
2023/05/31 02:25:05;;;;;;;2.53;1.50;;;;;;;14.62;100.00;93182.38;5087702;28;20044;-74
2023/05/31 02:27:32;;;;;;;2.75;1.70;;;;;;;14.63;100.00;93186.53;5088046;28;20044;-74
2023/05/31 02:29:58;;;;;;;2.47;1.50;;;;;;;14.65;100.00;93187.88;5087628;28;20044;-74
2023/05/31 02:32:26;;;;;;;4.05;1.80;;;;;;;14.65;100.00;93176.72;5087494;28;20497;-74
2023/05/31 02:34:52;;;;;;;2.78;1.50;;;;;;;14.66;100.00;93181.66;5087794;28;20497;-75
2023/05/31 02:37:21;;;;;;;2.20;1.73;;;;;;;14.67;100.00;93180.66;5087164;28;20036;-74
2023/05/31 02:39:47;;;;;;;3.72;1.10;;;;;;;14.67;100.00;93180.66;5087203;28;20522;-74
2023/05/31 02:42:14;;;;;;;2.15;1.10;;;;;;;14.68;100.00;93177.03;5087095;28;20068;-74
2023/05/31 02:44:41;;;;;;;3.20;1.60;;;;;;;14.68;100.00;93184.03;5087480;28;20051;-74
2023/05/31 02:47:08;;;;;;;2.50;1.42;;;;;;;14.63;100.00;93176.97;5087390;28;20056;-73
2023/05/31 02:49:35;;;;;;;2.63;1.42;;;;;;;14.65;100.00;93187.88;5087609;28;20043;-73
2023/05/31 02:52:01;;;;;;;2.88;1.48;;;;;;;14.66;100.00;93184.25;5087052;28;20044;-74
2023/05/31 02:54:29;;;;;;;2.40;1.40;;;;;;;14.65;100.00;93184.47;5087606;28;20044;-74
2023/05/31 02:56:56;;;;;;;2.28;1.20;;;;;;;14.64;100.00;93186.31;5086813;28;20098;-74
2023/05/31 02:59:24;;;;;;;2.60;1.55;;;;;;;14.63;100.00;93187.28;5087235;28;20083;-74
2023/05/31 03:01:51;;;;;;;2.78;1.63;;;;;;;14.63;100.00;93187.28;5087328;28;20139;-74
2023/05/31 03:04:17;;;;;;;2.80;1.58;;;;;;;14.59;100.00;93196.56;5087353;28;20044;-74
2023/05/31 03:06:44;;;;;;;2.20;1.52;;;;;;;14.61;100.00;93196.31;5086947;28;20083;-74
2023/05/31 03:09:14;;;;;;;3.03;1.80;;;;;;;14.62;100.00;93197.91;5087390;28;20048;-74
2023/05/31 03:11:42;;;;;;;2.55;1.50;;;;;;;14.58;100.00;93192.38;5087472;28;20052;-74
2023/05/31 03:14:08;;;;;;;3.13;1.52;;;;;;;14.63;100.00;93200.22;5087353;28;20428;-74
2023/05/31 03:16:35;;;;;;;5.45;1.80;;;;;;;14.62;100.00;93198.66;5086879;28;20059;-74
2023/05/31 03:19:02;;;;;;;2.33;1.40;;;;;;;14.66;100.00;93198.97;5087912;28;20051;-74
2023/05/31 03:21:29;;;;;;;3.47;1.90;;;;;;;14.68;100.00;93204.72;5090531;28;20040;-74
2023/05/31 03:23:56;;;;;;;4.10;2.13;;;;;;;14.68;100.00;93200.31;5096384;28;20051;-74
2023/05/31 03:26:22;;;;;;;3.10;1.60;;;;;;;14.69;100.00;93203.69;5079933;28;20492;-74
2023/05/31 03:28:51;;;;;;;3.90;1.90;;;;;;;14.71;100.00;93201.63;5083644;28;20053;-74
2023/05/31 03:31:18;;;;;;;3.75;1.92;;;;;;;14.73;100.00;93202.19;5090766;28;20044;-73
2023/05/31 03:33:45;;;;;;;4.05;2.20;;;;;;;14.77;100.00;93205.13;5091123;28;20075;-73
2023/05/31 03:36:12;;;;;;;3.10;1.83;;;;;;;14.71;100.00;93183.53;5090149;28;20051;-73
2023/05/31 03:38:39;;;;;;;4.47;2.17;;;;;;;14.72;100.00;93190.28;5090884;28;20060;-73
2023/05/31 03:41:05;;;;;;;2.80;1.70;;;;;;;14.76;100.00;93190.63;5077276;28;20055;-73
2023/05/31 03:43:32;;;;;;;5.32;2.78;;;;;;;14.79;100.00;93197.91;5090583;28;20099;-73
2023/05/31 03:46:00;;;;;;;4.45;2.75;;;;;;;14.80;100.00;93202.06;5090565;28;20560;-73
2023/05/31 03:48:27;;;;;;;4.25;3.05;;;;;;;14.84;100.00;93205.75;5090861;28;20040;-73
2023/05/31 03:50:54;;;;;;;3.53;2.08;;;;;;;14.87;100.00;93207.88;5089892;28;20048;-73
2023/05/31 03:53:21;;;;;;;4.15;2.20;;;;;;;14.89;100.00;93205.03;5090684;28;20051;-73
2023/05/31 03:55:48;;;;;;;3.17;2.03;;;;;;;14.87;100.00;93215.63;5089952;28;20055;-74
2023/05/31 03:58:15;;;;;;;5.10;2.00;;;;;;;14.85;100.00;93207.31;5090345;28;20105;-74
2023/05/31 04:00:42;;;;;;;3.75;1.73;;;;;;;14.91;100.00;93211.53;5090581;28;20040;-74
2023/05/31 04:03:11;;;;;;;3.38;1.98;;;;;;;14.93;100.00;93212.09;5090028;28;20076;-74
2023/05/31 04:05:38;;;;;;;3.30;1.83;;;;;;;14.93;100.00;93214.69;5090264;28;20508;-74
2023/05/31 04:08:05;;;;;;;3.08;1.42;;;;;;;14.95;100.00;93215.22;5090067;28;20056;-73
2023/05/31 04:10:32;;;;;;;2.47;1.65;;;;;;;14.99;100.00;93219.94;5090384;28;20048;-73
2023/05/31 04:12:59;;;;;;;2.88;1.75;;;;;;;15.00;100.00;93213.72;5089707;28;20044;-73
2023/05/31 04:15:26;;;;;;;2.95;1.60;;;;;;;15.04;100.00;93215.59;5090425;28;20048;-75
2023/05/31 04:17:52;;;;;;;2.75;1.77;;;;;;;15.09;100.00;93214.91;5089489;28;20148;-74
2023/05/31 04:20:20;;;;;;;4.15;2.38;;;;;;;15.14;100.00;93220.13;5089800;28;20055;-73
2023/05/31 04:22:47;;;;;;;3.72;2.03;;;;;;;15.18;100.00;93231.56;5089889;28;20052;-74
2023/05/31 04:25:17;;;;;;;3.28;1.95;;;;;;;15.23;100.00;93218.72;5090006;28;20496;-74
2023/05/31 04:27:44;;;;;;;4.03;2.13;;;;;;;15.23;100.00;93223.13;5089718;28;20050;-74
2023/05/31 04:30:11;;;;;;;4.15;2.15;;;;;;;15.29;100.00;93217.00;5089785;28;20044;-74
2023/05/31 04:32:39;;;;;;;2.55;1.80;;;;;;;15.22;100.00;93214.56;5088922;28;20405;-75
2023/05/31 04:35:08;;;;;;;4.15;2.33;;;;;;;15.06;100.00;93197.25;5089869;28;20078;-75
2023/05/31 04:37:36;;;;;;;3.70;2.40;;;;;;;15.07;100.00;93219.53;5089375;28;20558;-75
2023/05/31 04:40:05;;;;;;;4.03;2.30;;;;;;;14.92;100.00;93228.63;5089567;28;20345;-75
2023/05/31 04:42:32;;;;;;;4.88;2.67;;;;;;;14.81;100.00;93234.66;5089520;28;20044;-75
2023/05/31 04:45:01;;;;;;;7.55;3.67;;;;;;;14.64;100.00;93234.63;5089561;28;20044;-75
2023/05/31 04:47:28;;;;;;;5.30;2.80;;;;;;;14.54;100.00;93219.75;5089441;28;20407;-75
2023/05/31 04:49:56;;;;;;;3.35;2.10;;;;;;;14.35;100.00;93232.84;5090070;28;20091;-75
2023/05/31 04:52:26;;;;;;;5.32;3.33;;;;;;;14.38;100.00;93234.19;5088505;28;20051;-75
2023/05/31 04:54:54;;;;;;;2.90;2.10;;;;;;;14.41;100.00;93215.66;5087381;28;20641;-75
2023/05/31 04:57:21;;;;;;;4.03;2.42;;;;;;;14.59;100.00;93235.34;5088325;28;20043;-75
2023/05/31 04:59:48;;;;;;;4.68;2.58;;;;;;;14.72;100.00;93230.88;5088739;28;20492;-74
2023/05/31 05:02:15;;;;;;;4.22;2.97;;;;;;;14.83;100.00;93235.97;5087950;28;20044;-73
2023/05/31 05:04:42;;;;;;;3.72;2.30;;;;;;;14.92;100.00;93244.16;5088626;28;20404;-74
2023/05/31 05:07:08;;;;;;;3.38;2.25;;;;;;;15.07;100.00;93243.59;5075298;28;20602;-74
2023/05/31 05:09:35;;;;;;;2.85;1.85;;;;;;;15.18;100.00;93238.56;5089021;28;20055;-74
2023/05/31 05:12:04;;;;;;;3.67;2.42;;;;;;;15.17;100.00;93253.31;5089381;28;20040;-74
2023/05/31 05:14:31;;;;;;;3.40;2.53;;;;;;;15.25;100.00;93256.50;5088825;28;20044;-74
2023/05/31 05:16:58;;;;;;;5.03;2.70;;;;;;;15.31;100.00;93255.53;5089374;28;20462;-74
2023/05/31 05:19:25;;;;;;;5.68;3.08;;;;;;;15.44;100.00;93264.78;5088919;28;20052;-73
2023/05/31 05:21:52;;;;;;;3.97;2.33;;;;;;;15.33;100.00;93235.41;5089004;28;20430;-74
2023/05/31 05:24:19;;;;;;;3.42;2.13;;;;;;;15.63;100.00;93273.88;5089149;28;20393;-74
2023/05/31 05:26:46;;;;;;;3.58;2.65;;;;;;;15.72;100.00;93276.03;5088837;28;20063;-74
2023/05/31 05:29:14;;;;;;;3.28;2.47;;;;;;;15.81;100.00;93282.38;5088955;28;20048;-74
2023/05/31 05:31:41;;;;;;;3.30;2.15;;;;;;;15.89;100.00;93279.34;5088326;28;20044;-74
2023/05/31 05:34:09;;;;;;;4.13;2.95;;;;;;;16.02;100.00;93278.22;5088680;28;20412;-74
2023/05/31 05:36:36;;;;;;;3.60;2.47;;;;;;;16.14;100.00;93287.69;5088623;28;20076;-74
2023/05/31 05:39:06;;;;;;;5.00;3.17;;;;;;;16.27;100.00;93283.94;5088529;28;20051;-74
2023/05/31 05:41:33;;;;;;;5.97;3.05;;;;;;;16.38;100.00;93290.03;5088691;28;20044;-74
2023/05/31 05:43:59;;;;;;;4.00;2.78;;;;;;;16.42;100.00;93301.47;5075051;28;20114;-74
2023/05/31 05:46:28;;;;;;;4.18;2.67;;;;;;;16.48;100.00;93295.31;5088192;28;20071;-74
2023/05/31 05:48:55;;;;;;;9.07;3.30;;;;;;;16.55;100.00;93295.13;5088190;28;20047;-74
2023/05/31 05:51:21;;;;;;;5.75;4.13;;;;;;;16.70;100.00;93299.66;5088546;28;20147;-73
2023/05/31 05:53:48;;;;;;;7.15;3.55;;;;;;;16.81;100.00;93298.72;5088230;28;20044;-74
2023/05/31 05:56:18;;;;;;;9.02;4.82;;;;;;;16.92;100.00;93304.81;5088413;28;20043;-73
2023/05/31 05:58:46;;;;;;;7.45;4.03;;;;;;;17.00;100.00;93300.97;5087945;28;20067;-74
2023/05/31 06:01:18;;;;;;;6.40;3.65;;;;;;;17.09;100.00;93307.28;5088002;28;20079;-74
2023/05/31 06:03:48;;;;;;;17.63;4.15;;;;;;;17.19;100.00;93304.00;5088284;28;20075;-74
2023/05/31 06:06:16;;;;;;;8.93;4.63;;;;;;;17.26;100.00;93311.56;5087989;28;20420;-74
2023/05/31 06:08:43;;;;;;;16.13;4.28;;;;;;;17.41;100.00;93316.06;5087770;28;20047;-74
2023/05/31 06:11:10;;;;;;;9.00;3.88;;;;;;;17.49;100.00;93310.44;5088081;28;20055;-74
2023/05/31 06:13:37;;;;;;;8.07;3.83;;;;;;;17.59;100.00;93321.94;5087541;28;20040;-74
2023/05/31 06:16:05;;;;;;;10.02;4.07;;;;;;;17.68;100.00;93310.03;5088125;28;20055;-74
2023/05/31 06:18:32;;;;;;;9.52;4.78;;;;;;;17.78;100.00;93314.50;5087610;28;20241;-74
2023/05/31 06:21:00;;;;;;;5.80;3.22;;;;;;;17.79;100.00;93317.88;5087533;28;20394;-74
2023/05/31 06:23:27;;;;;;;9.90;3.90;;;;;;;17.86;100.00;93316.63;5087839;28;20044;-74
2023/05/31 06:25:54;;;;;;;9.05;3.78;;;;;;;17.98;100.00;93316.44;5087609;28;20454;-74
2023/05/31 06:28:21;;;;;;;7.57;3.65;;;;;;;18.05;100.00;93316.19;5074241;28;20052;-74
2023/05/31 06:30:48;;;;;;;8.65;4.32;;;;;;;18.12;100.00;93324.56;5077782;28;20051;-74
2023/05/31 06:33:14;;;;;;;9.13;4.40;;;;;;;18.24;100.00;93326.19;5077084;28;20459;-74
2023/05/31 06:35:42;;;;;;;11.18;4.95;;;;;;;18.32;100.00;93325.69;5080289;28;20044;-74
2023/05/31 06:38:14;;;;;;;8.20;5.07;;;;;;;18.39;100.00;93328.84;5067521;28;20063;-74
2023/05/31 06:40:42;;;;;;;9.68;4.90;;;;;;;18.50;100.00;93321.84;5067700;28;20051;-74
2023/05/31 06:43:09;;;;;;;8.82;4.38;;;;;;;18.56;100.00;93328.59;5066893;28;20102;-74
2023/05/31 06:45:38;;;;;;;11.95;4.82;;;;;;;18.63;100.00;93325.78;5067531;28;20115;-74
2023/05/31 06:48:05;;;;;;;7.43;4.28;;;;;;;18.72;100.00;93326.06;5077223;28;20066;-74
2023/05/31 06:50:32;;;;;;;7.53;4.40;;;;;;;18.78;100.00;93329.44;5087168;28;20051;-74
2023/05/31 06:52:58;;;;;;;6.95;3.95;;;;;;;18.82;100.00;93330.47;5087662;28;20113;-74
2023/05/31 06:55:27;;;;;;;8.70;4.30;;;;;;;18.85;100.00;93331.78;5085024;28;20056;-74
2023/05/31 06:57:53;;;;;;;6.35;4.00;;;;;;;18.87;100.00;93325.28;5086772;28;20048;-74
2023/05/31 07:00:21;;;;;;;9.95;4.50;;;;;;;18.91;100.00;93333.34;5086469;28;20044;-74
2023/05/31 07:02:48;;;;;;;7.53;3.90;;;;;;;18.98;100.00;93333.88;5077010;28;20098;-74
2023/05/31 07:05:14;;;;;;;9.25;4.22;;;;;;;19.01;100.00;93340.38;5070228;28;20497;-74
2023/05/31 07:07:41;;;;;;;6.05;3.72;;;;;;;19.00;100.00;93334.41;5087173;28;20494;-74
2023/05/31 07:10:09;;;;;;;9.15;4.53;;;;;;;19.08;100.00;93333.16;5086846;28;20044;-74
2023/05/31 07:12:37;;;;;;;11.15;5.00;;;;;;;19.13;100.00;93321.94;5086543;28;20450;-74
2023/05/31 07:15:05;;;;;;;5.43;2.83;;;;;;;19.26;100.00;93333.69;5087190;28;20104;-74
2023/05/31 07:17:31;;;;;;;6.40;4.10;;;;;;;19.30;100.00;93330.28;5086967;28;20048;-74
2023/05/31 07:19:58;;;;;;;6.45;3.58;;;;;;;19.35;100.00;93332.88;5086813;28;20052;-73
2023/05/31 07:22:25;;;;;;;7.20;4.25;;;;;;;19.40;100.00;93341.75;5087237;28;20048;-73
2023/05/31 07:24:52;;;;;;;4.78;3.28;;;;;;;19.46;100.00;93333.69;5087461;28;20048;-74
2023/05/31 07:27:19;;;;;;;6.10;3.97;;;;;;;19.50;100.00;93334.69;5086472;28;20048;-73
2023/05/31 07:29:47;;;;;;;8.70;4.28;;;;;;;19.59;100.00;93339.38;5087069;28;20066;-73
2023/05/31 07:32:14;;;;;;;6.88;3.85;;;;;;;19.56;100.00;93332.09;5086398;28;20442;-73
2023/05/31 07:34:41;;;;;;;6.05;3.80;;;;;;;19.63;100.00;93340.44;5086876;28;20090;-73
2023/05/31 07:37:08;;;;;;;5.50;3.55;;;;;;;19.72;100.00;93340.69;5086606;28;20040;-73
2023/05/31 07:39:35;;;;;;;6.10;4.40;;;;;;;19.81;100.00;93341.69;5086676;28;20052;-73
2023/05/31 07:42:01;;;;;;;11.00;4.50;;;;;;;19.92;100.00;93341.66;5086370;28;20139;-73
2023/05/31 07:44:28;;;;;;;8.68;4.75;;;;;;;20.02;100.00;93345.06;5086629;28;20048;-73
2023/05/31 07:46:56;;;;;;;5.97;3.70;;;;;;;20.09;100.00;93342.16;5086628;28;20055;-73
2023/05/31 07:49:23;;;;;;;7.00;4.53;;;;;;;20.03;100.00;93351.06;5073311;28;20044;-73
2023/05/31 07:51:50;;;;;;;7.90;4.80;;;;;;;20.12;100.00;93339.03;5086586;28;20044;-73
2023/05/31 07:54:17;;;;;;;6.32;4.68;;;;;;;20.30;100.00;93344.72;5086336;28;20416;-73
2023/05/31 07:56:43;;;;;;;7.53;4.63;;;;;;;20.42;100.00;93347.03;5086348;28;20055;-73
2023/05/31 07:59:10;;;;;;;9.57;4.65;;;;;;;20.54;100.00;93341.47;5086327;28;20561;-73
2023/05/31 08:01:37;;;;;;;5.75;3.55;;;;;;;20.63;100.00;93345.09;5081501;28;20811;-73
2023/05/31 08:04:09;;;;;;;5.53;3.08;;;;;;;20.67;100.00;93348.72;5074587;28;20121;-73
2023/05/31 08:06:36;;;;;;;5.97;3.40;;;;;;;20.83;100.00;93341.56;5087554;28;20044;-73
2023/05/31 08:09:04;;;;;;;6.60;4.43;;;;;;;20.88;100.00;93348.63;5090317;28;20122;-73
2023/05/31 08:11:31;;;;;;;4.65;3.33;;;;;;;21.04;100.00;93348.53;5089900;28;20497;-73
2023/05/31 08:13:58;;;;;;;5.05;3.03;;;;;;;20.99;100.00;93346.75;5090825;28;20416;-73
2023/05/31 08:16:25;;;;;;;5.55;3.13;;;;;;;21.07;100.00;93348.75;5090200;28;20424;-73
2023/05/31 08:18:52;;;;;;;6.28;3.10;;;;;;;21.24;100.00;93350.22;5096677;28;20477;-73
2023/05/31 08:21:20;;;;;;;5.43;2.72;;;;;;;21.44;100.00;93338.06;5089623;28;20054;-73
2023/05/31 08:23:47;;;;;;;7.32;4.05;;;;;;;21.55;100.00;93336.91;5090117;28;20515;-73
2023/05/31 08:26:13;;;;;;;5.80;3.55;;;;;;;21.84;100.00;93343.22;5089660;28;20051;-73
2023/05/31 08:28:40;;;;;;;5.85;3.38;;;;;;;22.07;100.00;93335.66;5090269;28;20044;-73
2023/05/31 08:31:07;;;;;;;6.03;3.13;;;;;;;22.25;100.00;93334.91;5090158;28;20101;-73
2023/05/31 08:33:35;;;;;;;6.28;3.72;;;;;;;22.13;100.00;93337.91;5089488;28;20555;-73
2023/05/31 08:36:04;;;;;;;5.38;3.40;;;;;;;21.74;100.00;93338.84;5089923;28;20076;-73
2023/05/31 08:38:34;;;;;;;6.00;4.20;;;;;;;21.58;100.00;93333.72;5089369;28;20511;-73
2023/05/31 08:41:03;;;;;;;6.85;3.58;;;;;;;21.83;100.00;93331.19;5089446;28;20059;-73
2023/05/31 08:43:32;;;;;;;5.22;2.95;;;;;;;21.71;100.00;93332.34;5089502;28;20044;-73
2023/05/31 08:45:58;;;;;;;5.18;3.50;;;;;;;22.07;100.00;93325.97;5089510;28;20048;-73
2023/05/31 08:48:29;;;;;;;6.25;3.83;;;;;;;21.44;98.52;93333.59;5089388;28;20502;-73
2023/05/31 08:50:58;;;;;;;6.18;3.00;;;;;;;21.89;96.18;93332.69;5089283;28;20071;-73
2023/05/31 08:53:25;;;;;;;7.82;4.00;;;;;;;21.74;100.00;93323.16;5088519;28;20056;-73
2023/05/31 08:55:54;;;;;;;6.00;3.30;;;;;;;21.52;100.00;93319.16;5089132;28;20040;-73
2023/05/31 08:58:22;;;;;;;5.38;3.10;;;;;;;21.23;100.00;93320.72;5088946;28;20093;-74
2023/05/31 09:00:49;;;;;;;6.63;3.63;;;;;;;21.48;99.60;93313.69;5089043;28;20131;-73
2023/05/31 09:03:16;;;;;;;5.45;3.20;;;;;;;21.65;99.24;93312.50;5088542;28;20044;-74
2023/05/31 09:05:43;;;;;;;4.80;2.70;;;;;;;21.95;100.00;93305.44;5088717;28;20055;-74
2023/05/31 09:08:09;;;;;;;4.55;3.08;;;;;;;21.06;98.33;93313.25;5088665;28;20048;-74
2023/05/31 09:10:36;;;;;;;4.43;2.72;;;;;;;21.41;97.71;93305.41;5088809;28;20450;-74
2023/05/31 09:13:05;;;;;;;6.22;2.40;;;;;;;21.82;92.69;93311.31;5089122;28;20412;-74
2023/05/31 09:15:33;;;;;;;5.05;3.20;;;;;;;21.67;90.84;93307.00;5089074;28;20515;-74
2023/05/31 09:18:13;;;;;;;5.88;2.80;;;;;;;21.67;91.77;93309.63;5088611;28;20051;-74
2023/05/31 09:20:40;;;;;;;5.57;3.72;;;;;;;21.55;95.67;93302.94;5088638;28;20044;-74
2023/05/31 09:23:09;;;;;;;4.30;2.05;;;;;;;21.80;95.66;93298.53;5088042;28;20044;-73
2023/05/31 09:25:45;;;;;;;17.92;3.85;;;;;;;22.25;99.01;93287.03;5088528;28;20044;-73
2023/05/31 09:28:14;;;;;;;5.90;2.72;;;;;;;22.36;93.47;93290.31;5088464;28;20044;-73
2023/05/31 09:30:41;;;;;;;4.22;3.03;;;;;;;21.99;89.04;93293.34;5088421;28;20488;-73
2023/05/31 09:33:08;;;;;;;4.63;2.53;;;;;;;21.15;96.84;93284.72;5088398;28;20044;-74
2023/05/31 09:35:35;;;;;;;4.45;2.38;;;;;;;21.09;95.78;93281.38;5088025;28;20138;-74
2023/05/31 09:38:06;;;;;;;5.40;2.80;;;;;;;21.22;98.71;93271.34;5075193;28;20055;-74
2023/05/31 09:40:34;;;;;;;4.63;1.98;;;;;;;21.15;96.95;93278.72;5087057;28;20052;-74
2023/05/31 09:43:01;;;;;;;5.50;2.67;;;;;;;21.42;97.70;93278.22;5088386;28;20071;-74
2023/05/31 09:45:29;;;;;;;4.75;2.67;;;;;;;21.25;99.45;93276.03;5087694;28;20076;-74
2023/05/31 09:47:56;;;;;;;6.03;2.45;;;;;;;20.99;98.98;93272.84;5087928;28;20051;-74
2023/05/31 09:50:24;;;;;;;2.55;2.05;;;;;;;20.96;100.00;93274.94;5088357;28;20044;-75
2023/05/31 09:52:57;;;;;;;3.60;2.35;;;;;;;20.91;100.00;93271.59;5087855;28;20043;-75
2023/05/31 09:55:24;;;;;;;5.22;2.35;;;;;;;21.16;100.00;93264.63;5087668;28;20139;-75
2023/05/31 09:57:55;;;;;;;3.08;2.22;;;;;;;21.52;100.00;93271.34;5087994;28;20454;-75
2023/05/31 10:00:22;;;;;;;3.85;1.98;;;;;;;22.00;96.01;93266.13;5088510;28;20148;-75
2023/05/31 10:02:51;;;;;;;3.47;2.30;;;;;;;21.42;95.16;93282.69;5088012;28;20053;-75
2023/05/31 10:05:20;;;;;;;4.13;2.22;;;;;;;21.38;98.50;93279.06;5087934;28;20044;-75
2023/05/31 10:07:48;;;;;;;4.38;2.40;;;;;;;21.48;95.43;93284.19;5087358;28;20055;-75
2023/05/31 10:10:19;;;;;;;4.35;2.25;;;;;;;21.29;97.71;93286.72;5087545;28;20097;-75
2023/05/31 10:12:50;;;;;;;4.22;2.25;;;;;;;21.50;95.90;93289.91;5087731;28;20044;-74
2023/05/31 10:15:19;;;;;;;3.50;1.60;;;;;;;21.77;100.00;93293.88;5074517;28;20051;-74
2023/05/31 10:17:55;;;;;;;4.28;2.33;;;;;;;21.92;100.00;93277.22;5088042;28;20044;-75
2023/05/31 10:20:25;;;;;;;3.97;2.47;;;;;;;22.12;98.57;93278.06;5087044;28;20055;-75
2023/05/31 10:22:55;;;;;;;4.38;2.33;;;;;;;22.25;98.76;93272.13;5087785;28;20044;-75
2023/05/31 10:25:29;;;;;;;6.25;2.70;;;;;;;22.32;99.03;93263.94;5087846;28;20055;-75
2023/05/31 10:28:01;;;;;;;14.98;3.30;;;;;;;22.40;98.99;93271.13;5071622;28;20058;-74
2023/05/31 10:30:31;;;;;;;5.97;2.97;;;;;;;22.43;98.68;93260.13;5087432;28;20063;-75
2023/05/31 10:33:06;;;;;;;7.70;3.78;;;;;;;22.35;100.00;93252.88;5087079;28;20051;-74
2023/05/31 10:35:33;;;;;;;4.28;2.33;;;;;;;22.40;99.78;93262.53;5087272;28;20044;-74
2023/05/31 10:38:01;;;;;;;3.60;1.95;;;;;;;22.31;100.00;93254.50;5087105;28;20044;-74
2023/05/31 10:40:35;;;;;;;6.03;3.00;;;;;;;22.26;100.00;93257.97;5087539;28;20097;-75
2023/05/31 10:43:08;;;;;;;4.20;2.13;;;;;;;22.25;99.74;93263.47;5087400;28;20046;-74
2023/05/31 10:45:39;;;;;;;3.83;2.03;;;;;;;22.15;100.00;93254.72;5086766;28;20097;-74
2023/05/31 10:48:20;;;;;;;3.95;2.67;;;;;;;21.99;100.00;93253.34;5087557;28;20055;-75
2023/05/31 10:50:54;;;;;;;5.28;2.75;;;;;;;21.98;100.00;93251.81;5087127;28;20047;-75
2023/05/31 10:53:20;;;;;;;5.13;2.83;;;;;;;21.88;100.00;93255.28;5087261;28;20098;-74
2023/05/31 10:55:49;;;;;;;3.25;2.30;;;;;;;21.78;100.00;93247.56;5086492;28;20135;-75
2023/05/31 10:58:27;;;;;;;4.72;2.58;;;;;;;21.71;100.00;93247.91;5086715;28;20047;-74
2023/05/31 11:00:55;;;;;;;4.25;2.75;;;;;;;21.74;100.00;93250.75;5087569;28;20139;-75
2023/05/31 11:03:24;;;;;;;4.88;2.30;;;;;;;21.72;100.00;93246.84;5086613;28;20623;-74
2023/05/31 11:05:59;;;;;;;3.40;1.80;;;;;;;21.66;100.00;93237.50;5086833;28;20043;-74
2023/05/31 11:08:26;;;;;;;4.07;1.73;;;;;;;21.50;100.00;93255.94;5086965;28;20237;-75
2023/05/31 11:10:53;;;;;;;3.47;2.10;;;;;;;21.05;100.00;93249.03;5085866;28;20044;-75
2023/05/31 11:13:20;;;;;;;3.75;2.25;;;;;;;21.18;100.00;93245.00;5072338;28;20462;-74
2023/05/31 11:15:48;;;;;;;4.97;2.70;;;;;;;21.03;100.00;93235.47;5066842;28;20123;-74
2023/05/31 11:18:26;;;;;;;4.28;2.03;;;;;;;21.16;100.00;93241.09;5066635;28;20055;-75
2023/05/31 11:20:55;;;;;;;2.95;2.22;;;;;;;20.65;100.00;93243.81;5067132;28;20051;-75
2023/05/31 11:23:28;;;;;;;4.85;2.83;;;;;;;20.20;100.00;93233.38;5066891;28;20568;-74
2023/05/31 11:26:15;;;;;;;4.22;2.30;;;;;;;19.89;100.00;93221.25;5067315;28;20127;-74
2023/05/31 11:28:57;;;;;;;4.40;2.50;;;;;;;19.70;100.00;93223.66;5067002;28;20440;-74
2023/05/31 11:31:58;;;;;;;4.40;2.90;;;;;;;20.01;100.00;93207.91;5067315;28;20563;-74